Hlavní strana
METAR-TAF:

METAR-TAF

Letiště :

Perth, Austrálie

zeměpisná šířka: 31-56S, zeměpisná délka: 115-57E, výška: 20 m

Aktuální stav počasí

Zpráva byla vytvořena před 38 minutami, v 14:00 UTC
Východoseverovýchodní vítr 8 kt
Teplota 13°C
Vlhkost vzduchu 72%
Tlak 1029 hPa
Viditelnost 10 km a více
Žádná oblačnost pod 1500 m, nevyskytují se cumulonimby.

METAR: YPPH 241400Z 07008KT CAVOK 13/08 Q1029 NOSIG

Čas: 22:38 (14:38 UTC)

Předpověď počasí

Zpráva byla vytvořena před 3 hodinami a 42 minutami, v 10:56 UTC
Předpověď platná od 24 v 12 UTC do 25 v 18 UTC
Východní vítr 5 kt
Viditelnost 10 km a více
Žádná oblačnost pod 1500 m, nevyskytují se cumulonimby.
Od 25 v 0000 UTC
Severoseverovýchodní vítr 10 kt
Viditelnost 10 km a více
Žádná oblačnost pod 1500 m, nevyskytují se cumulonimby.

TAF: YPPH 241056Z 2412/2518 08005KT CAVOK FM250000 03010KT CAVOK

Stav a předpovědi počasí z více než 4 000 letišť (zprávy METAR a TAF).

Červené a žluté tečky na mapě představují dostupné meteorologické stanice.

Když kurzor umístíte na tečku, zobrazí se název stanice.

Pak kliknutím zobrazíte stav a předpověď počasí.

Chcete-li změnit mapu, kliknutím na zelené tlačítko se znaménkem +mapu přiblížíte, kliknutím na zelené tlačítko se znaménkem – mapu oddálíte a kliknutím na zelené šipky přejdete na sousední mapy.


METAR-TAF: